RÉSULTATS    Courons pour changer le diabète - Novo Nordisk - Édition du 18/11/2017


Vous pouvez changer la distance ici.

Vous pouvez changer la distance ici.

Classement PDF Général Classement PDF Alphabétique /results/<span class='glyphicon glyphicon-picture'></span> Classement Temps Réel - Temps Puce

365 participants - 153 Hommes - 212 Femmes
43 licenciés (12%) - 322 non-licenciés (88%)

Temps moyen : 00:29:32




Pos. Temps Nom - Prénom Club Dossard Catégorie km/h
26 00:19:47 MENAGER Pierre 1200 CAM (4 / 13) 15.1
27 00:19:48 MARC Michael OXYGENE 28 1092 SEM (11 / 44) 15.1
28 00:19:53 PORC Romuald LES HOPITAUX DE CHARTRES 1125 V1M (5 / 41) 15.0
29 00:19:59 CABART Emilien ES AUNEAU 1171 MIM (4 / 13) 15.0
30 00:20:00 JANVIER Jean CHARTRES HANDISPORT 1087 V3M (1 / 16) 15.0
31 00:20:03 BEAUSSE Flo 2730 MIM (5 / 13) 14.9
32 00:20:18 CHEVALLIER Corentin NOVO NORDISK ENTREPRISE 1256 CAM (5 / 13) 14.7
33 00:20:23 MOREIRA Daniel FUTUROL 1249 V2M (2 / 18) 14.7
34 00:20:25 DAUBIN David RUNNING LUMILEDS SPORTS 200 SEM (12 / 44) 14.7
35 00:20:28 GONCALVES Estefanio VAINCRE L''AUTISME 1177 V1M (6 / 41) 14.6
36 00:20:31 CHAUVEAU Thierry 2710 V1M (7 / 41) 14.6
37 00:20:34 BARUGUILL Chloe 2705 SEF (1 / 102) 14.5
38 00:20:35 GRIMALDI Jules 1268 CAM (6 / 13) 14.5
39 00:20:36 PILLU Theo 1211 CAM (7 / 13) 14.5
40 00:20:40 ANDROUARD Florian OXYGENE 28 1251 SEM (13 / 44) 14.5
41 00:20:42 CHERIAUX Antoine 1287 CAM (8 / 13) 14.4
42 00:20:42 MARQUE Severine NOVO NORDISK ENTREPRISE 1343 SEF (2 / 102) 14.4
43 00:20:43 PILLU Benoit 1212 V1M (8 / 41) 14.4
44 00:21:06 SALIN Nathan 56 JUM (4 / 5) 14.2
45 00:21:07 CHANIOLLEAU Sandrine 1039 V1F (1 / 64) 14.2
46 00:21:07 ROLLAND Pascal 2716 MIM (6 / 13) 14.2
47 00:21:29 MEYRIEU Jean michel 1142 V2M (3 / 18) 13.9
48 00:21:29 GALLON Cyril 1311 V1M (9 / 41) 13.9
49 00:21:31 VERZEAUX Remy PLM 1296 SEM (14 / 44) 13.9
50 00:21:32 VERRIER Maxime AS LORILLARD 1308 V2M (4 / 18) 13.9